Scroll down
FLIGHT INFORMATION
British Airways

BAW175

At Arrival Gate

EGLL
 KJFK
DATE: 2019-09-11
GATE:  -
GATE DEPARTURE: 08:11
TAKEOFF: 08:27
DATE: 2019-09-11
GATE: T5-30A
LANDING: 15:43
GATE ARRIVAL: 16:00
FLIGHT DATA
Crew: 
Speed: 
526 kts
Altitude: 
38,076 ft
Stage Length: 
2,991.1 nm
Block Time: 
7.8 hrs
Flight Time: 
7.3 hrs
Fuel Used: 
172,495 lb
Cleared Route: EGLL D256G D261K WODNB D101H CPT KENET GAVGO DIKAS STU SLANY MALOT 5330N 5240N 5050N ELSIR TUSKY PLYMM PVD TRAIT PARCH CCC ROBER CRAIL CAPIT KJFK
TRACK DATA
50,000 ft 1,000 kts
AIRCRAFT INFO AND CUMULATIVE STATS
Aircraft Type: 
B744
Registration: 
SELCAL: 
AKQS
MSN/LN: 
25811 / 1018
Operator: 
Total Flights: 
5
Total Block Time: 
38.2 hrs
Total Flight Time: 
36.4 hrs
Total Fuel Time: 
832,927 lb
DATALINK LOG | Newest first | Current as of: 2020-11-29 22:31:12
LABEL SEQUENCE CONTENT Dn/Up
QD015716:00 53.3▼ Dn
QC444215:43▼ Dn
GA3000GATE T7-4▲ Up
GR2840KJFK 15:37 YP/UM 00/01 WCHR/S/C 03/00/00▼ Dn
2U2601KJFK 111351Z 22013KT 10SM FEW014 BKN260 23/21 A3021 RMK AO2 SLP228 T02330206 $▲ Up
2S2531KJFK▼ Dn
QB271808:27▼ Dn
QA110608:11 225.8▼ Dn
A30704CLEARED TO KJFK VIA CPT3F CPT UL9 GAVGO UL18 DIKAS UL9 SLANY MALOT 53N030W 52N040W 50N050W ELSIR N316A TUSKY PLYMM PARCH3. SQUAWK 4234.▲ Up
2U0703EGLL 110750Z AUTO 23013KT 9999 OVC015 16/13 Q1019 TEMPO BKN014▲ Up
2S0604EGLL▼ Dn
B30648EGLL KJFK BAW175 G-CIVB W ▼ Dn
Q00148[LINK ACK]▲ Up
Q00100[LINK TEST]▼ Dn


AIRCRAFT HISTORY
FLIGHT DATE FLIGHT NO. ORIGIN DESTINATION CLEARED ROUTE BLOCK TIME FLIGHT TIME FUEL USED PILOT
2020-08-02BAW8022KJFK KBOS KJFK MERIT KBOS1.2 hrs0.8 hrs24,557 lbKevin Hall
2019-09-11BAW175EGLL KJFK EGLL D256G D261K WODNB D101H CPT KENET GAVGO DIKAS STU SLANY MALOT 5330N 5240N 5050N ELSIR TUSKY PLYMM PVD TRAIT PARCH CCC ROBER CRAIL CAPIT KJFK7.8 hrs7.3 hrs172,495 lbKyle Rodgers
2019-09-06BAW268KLAX EGLL KLAX DLREY KLIPR KEGGS COOPP ORCKA NNAVY BLAZN LAS BAWER LARVE EKR RWF SSM VBS BAREE RIKAL 5350N 5540N 5530N 5420N MALOT GISTI SLANY STU NUMPO OKESI BEDEK NIGIT LLW03 OCK EGLL9.8 hrs9.5 hrs214,833 lbKyle Rodgers
2019-09-05BAW269EGLL KLAX EGLL D256G D261K WODNB D101H CPT KENET GAVGO MALBY DIKAS MEDOG LANON BADSI LIPGO DUB OLAPO SLG MOLAK NIBOG BEGID BILTO 5820N 6030N 6140N 6150N NIFTY MUSLO RODBO YLA YSK YPO YTL WG DIK BOY BPI TCH ILC KOPLE BOGET MEETT WATSS UPDOC KLAX11.6 hrs11.2 hrs243,934 lbKyle Rodgers
2019-09-05BAW218KDEN EGLL KDEN GISTT KIDNG GINTH SPYCE TURBN CHICN KKIMM BRYCC TAYOT KP87A ABR YQT YMO JOVIE DORYY 5750N 5740N 5730N 5720N PIKIL SOVED LUTOV KELLY CASEL PENIL WAL EKLAD MOGTA NANTI NUGRA TOBID SOPIT WCONB BNN EGLL7.9 hrs7.6 hrs177,107 lbKyle Rodgers